sensor_id;sensor_type;location;lat;lon;timestamp;P1;durP1;ratioP1;P2;durP2;ratioP2
16854;SDS011;8543;54.522;18.550;2023-09-19T00:01:40;17.60;;;15.20;;
16854;SDS011;8543;54.522;18.550;2023-09-19T00:04:07;16.90;;;14.20;;
16854;SDS011;8543;54.522;18.550;2023-09-19T00:06:34;19.60;;;15.50;;
16854;SDS011;8543;54.522;18.550;2023-09-19T00:09:01;18.00;;;16.10;;
16854;SDS011;8543;54.522;18.550;2023-09-19T00:11:27;19.20;;;16.60;;
16854;SDS011;8543;54.522;18.550;2023-09-19T00:13:54;19.30;;;15.70;;
16854;SDS011;8543;54.522;18.550;2023-09-19T00:16:19;17.70;;;15.80;;
16854;SDS011;8543;54.522;18.550;2023-09-19T00:18:45;20.10;;;17.40;;
16854;SDS011;8543;54.522;18.550;2023-09-19T00:21:11;20.00;;;16.60;;
16854;SDS011;8543;54.522;18.550;2023-09-19T00:23:37;18.60;;;16.60;;
16854;SDS011;8543;54.522;18.550;2023-09-19T00:26:03;20.10;;;16.80;;
16854;SDS011;8543;54.522;18.550;2023-09-19T00:28:29;17.90;;;16.10;;
16854;SDS011;8543;54.522;18.550;2023-09-19T00:30:55;18.90;;;17.00;;
16854;SDS011;8543;54.522;18.550;2023-09-19T00:33:21;18.80;;;16.90;;
16854;SDS011;8543;54.522;18.550;2023-09-19T00:35:51;16.40;;;14.60;;
16854;SDS011;8543;54.522;18.550;2023-09-19T00:38:17;15.40;;;13.40;;
16854;SDS011;8543;54.522;18.550;2023-09-19T00:40:46;14.40;;;12.90;;
16854;SDS011;8543;54.522;18.550;2023-09-19T00:43:12;16.30;;;14.60;;
16854;SDS011;8543;54.522;18.550;2023-09-19T00:45:37;17.30;;;15.60;;
16854;SDS011;8543;54.522;18.550;2023-09-19T00:48:04;16.00;;;14.40;;
16854;SDS011;8543;54.522;18.550;2023-09-19T00:50:34;20.30;;;15.60;;
16854;SDS011;8543;54.522;18.550;2023-09-19T00:53:00;18.10;;;16.10;;
16854;SDS011;8543;54.522;18.550;2023-09-19T00:55:25;16.70;;;15.00;;
16854;SDS011;8543;54.522;18.550;2023-09-19T00:57:52;18.00;;;15.50;;
16854;SDS011;8543;54.522;18.550;2023-09-19T01:00:20;17.50;;;15.70;;
16854;SDS011;8543;54.522;18.550;2023-09-19T01:02:46;17.70;;;15.70;;
16854;SDS011;8543;54.522;18.550;2023-09-19T01:05:12;18.20;;;16.30;;
16854;SDS011;8543;54.522;18.550;2023-09-19T01:07:38;17.50;;;15.80;;
16854;SDS011;8543;54.522;18.550;2023-09-19T01:10:07;18.10;;;16.30;;
16854;SDS011;8543;54.522;18.550;2023-09-19T01:23:21;16.50;;;14.80;;
16854;SDS011;8543;54.522;18.550;2023-09-19T01:26:06;17.80;;;15.90;;
16854;SDS011;8543;54.522;18.550;2023-09-19T01:31:19;18.60;;;16.10;;
16854;SDS011;8543;54.522;18.550;2023-09-19T01:34:01;18.20;;;16.30;;
16854;SDS011;8543;54.522;18.550;2023-09-19T01:36:30;18.30;;;16.40;;
16854;SDS011;8543;54.522;18.550;2023-09-19T01:39:02;19.80;;;17.80;;
16854;SDS011;8543;54.522;18.550;2023-09-19T01:47:04;19.00;;;17.00;;
16854;SDS011;8543;54.522;18.550;2023-09-19T01:49:37;16.10;;;14.40;;
16854;SDS011;8543;54.522;18.550;2023-09-19T01:52:26;14.40;;;12.80;;
16854;SDS011;8543;54.522;18.550;2023-09-19T01:54:54;14.20;;;11.20;;
16854;SDS011;8543;54.522;18.550;2023-09-19T01:57:24;14.10;;;11.50;;
16854;SDS011;8543;54.522;18.550;2023-09-19T02:00:05;18.70;;;13.80;;
16854;SDS011;8543;54.522;18.550;2023-09-19T02:02:34;17.80;;;13.70;;
16854;SDS011;8543;54.522;18.550;2023-09-19T02:05:04;16.90;;;15.20;;
16854;SDS011;8543;54.522;18.550;2023-09-19T02:07:30;17.10;;;15.00;;
16854;SDS011;8543;54.522;18.550;2023-09-19T02:09:57;18.50;;;14.80;;
16854;SDS011;8543;54.522;18.550;2023-09-19T02:12:25;15.40;;;13.80;;
16854;SDS011;8543;54.522;18.550;2023-09-19T02:14:53;15.60;;;13.90;;
16854;SDS011;8543;54.522;18.550;2023-09-19T02:17:19;16.10;;;14.50;;
16854;SDS011;8543;54.522;18.550;2023-09-19T02:19:44;16.60;;;14.80;;
16854;SDS011;8543;54.522;18.550;2023-09-19T02:22:10;13.10;;;11.70;;
16854;SDS011;8543;54.522;18.550;2023-09-19T02:24:38;12.70;;;10.50;;
16854;SDS011;8543;54.522;18.550;2023-09-19T02:27:04;10.90;;;9.50;;
16854;SDS011;8543;54.522;18.550;2023-09-19T02:29:30;12.40;;;10.40;;
16854;SDS011;8543;54.522;18.550;2023-09-19T02:31:56;11.10;;;9.90;;
16854;SDS011;8543;54.522;18.550;2023-09-19T02:34:22;12.50;;;9.70;;
16854;SDS011;8543;54.522;18.550;2023-09-19T02:36:47;12.00;;;7.90;;
16854;SDS011;8543;54.522;18.550;2023-09-19T02:39:13;10.30;;;7.60;;
16854;SDS011;8543;54.522;18.550;2023-09-19T02:41:38;10.30;;;7.60;;
16854;SDS011;8543;54.522;18.550;2023-09-19T02:44:04;8.90;;;7.20;;
16854;SDS011;8543;54.522;18.550;2023-09-19T02:46:32;7.70;;;6.10;;
16854;SDS011;8543;54.522;18.550;2023-09-19T02:49:01;6.90;;;5.70;;
16854;SDS011;8543;54.522;18.550;2023-09-19T02:51:30;8.00;;;5.60;;
16854;SDS011;8543;54.522;18.550;2023-09-19T02:53:56;6.40;;;4.40;;
16854;SDS011;8543;54.522;18.550;2023-09-19T02:56:21;9.00;;;4.80;;
16854;SDS011;8543;54.522;18.550;2023-09-19T02:58:47;10.50;;;4.90;;
16854;SDS011;8543;54.522;18.550;2023-09-19T03:01:13;6.80;;;4.90;;
16854;SDS011;8543;54.522;18.550;2023-09-19T03:03:39;8.20;;;5.10;;
16854;SDS011;8543;54.522;18.550;2023-09-19T03:06:06;8.40;;;4.50;;
16854;SDS011;8543;54.522;18.550;2023-09-19T03:08:34;7.60;;;4.60;;
16854;SDS011;8543;54.522;18.550;2023-09-19T03:11:05;7.40;;;3.90;;
16854;SDS011;8543;54.522;18.550;2023-09-19T03:13:31;8.20;;;4.00;;
16854;SDS011;8543;54.522;18.550;2023-09-19T03:15:57;10.10;;;3.70;;
16854;SDS011;8543;54.522;18.550;2023-09-19T03:18:26;5.60;;;3.60;;
16854;SDS011;8543;54.522;18.550;2023-09-19T03:20:52;8.10;;;3.30;;
16854;SDS011;8543;54.522;18.550;2023-09-19T03:23:20;7.40;;;3.90;;
16854;SDS011;8543;54.522;18.550;2023-09-19T03:25:46;7.20;;;4.00;;
16854;SDS011;8543;54.522;18.550;2023-09-19T03:28:12;6.40;;;4.20;;
16854;SDS011;8543;54.522;18.550;2023-09-19T03:30:38;8.50;;;4.30;;
16854;SDS011;8543;54.522;18.550;2023-09-19T03:33:03;6.90;;;4.20;;
16854;SDS011;8543;54.522;18.550;2023-09-19T03:35:30;9.00;;;4.00;;
16854;SDS011;8543;54.522;18.550;2023-09-19T03:37:56;6.90;;;3.30;;
16854;SDS011;8543;54.522;18.550;2023-09-19T03:40:21;6.00;;;3.40;;
16854;SDS011;8543;54.522;18.550;2023-09-19T03:42:48;7.30;;;3.70;;
16854;SDS011;8543;54.522;18.550;2023-09-19T03:45:13;6.90;;;4.00;;
16854;SDS011;8543;54.522;18.550;2023-09-19T03:47:40;7.70;;;3.30;;
16854;SDS011;8543;54.522;18.550;2023-09-19T03:50:06;6.60;;;3.50;;
16854;SDS011;8543;54.522;18.550;2023-09-19T03:52:33;8.40;;;3.50;;
16854;SDS011;8543;54.522;18.550;2023-09-19T03:54:59;6.90;;;3.70;;
16854;SDS011;8543;54.522;18.550;2023-09-19T03:57:25;9.90;;;3.90;;
16854;SDS011;8543;54.522;18.550;2023-09-19T03:59:50;7.20;;;3.70;;
16854;SDS011;8543;54.522;18.550;2023-09-19T04:02:18;7.40;;;4.20;;
16854;SDS011;8543;54.522;18.550;2023-09-19T04:04:50;7.80;;;3.90;;
16854;SDS011;8543;54.522;18.550;2023-09-19T04:07:17;7.50;;;3.70;;
16854;SDS011;8543;54.522;18.550;2023-09-19T04:09:43;7.00;;;3.30;;
16854;SDS011;8543;54.522;18.550;2023-09-19T04:12:09;8.80;;;3.80;;
16854;SDS011;8543;54.522;18.550;2023-09-19T04:14:34;6.90;;;3.00;;
16854;SDS011;8543;54.522;18.550;2023-09-19T04:17:00;6.70;;;3.00;;
16854;SDS011;8543;54.522;18.550;2023-09-19T04:19:25;5.60;;;3.10;;
16854;SDS011;8543;54.522;18.550;2023-09-19T04:21:51;5.60;;;3.00;;
16854;SDS011;8543;54.522;18.550;2023-09-19T04:24:16;5.90;;;3.00;;
16854;SDS011;8543;54.522;18.550;2023-09-19T04:26:44;6.10;;;2.70;;
16854;SDS011;8543;54.522;18.550;2023-09-19T04:29:10;5.70;;;2.90;;
16854;SDS011;8543;54.522;18.550;2023-09-19T04:31:36;6.80;;;3.10;;
16854;SDS011;8543;54.522;18.550;2023-09-19T04:34:03;6.30;;;3.30;;
16854;SDS011;8543;54.522;18.550;2023-09-19T04:36:28;4.50;;;3.10;;
16854;SDS011;8543;54.522;18.550;2023-09-19T04:38:54;8.00;;;3.40;;
16854;SDS011;8543;54.522;18.550;2023-09-19T04:41:20;6.10;;;3.00;;
16854;SDS011;8543;54.522;18.550;2023-09-19T04:43:47;6.70;;;2.80;;
16854;SDS011;8543;54.522;18.550;2023-09-19T04:46:12;6.30;;;2.90;;
16854;SDS011;8543;54.522;18.550;2023-09-19T04:48:39;6.60;;;3.00;;
16854;SDS011;8543;54.522;18.550;2023-09-19T04:51:05;7.30;;;2.90;;
16854;SDS011;8543;54.522;18.550;2023-09-19T04:53:30;9.10;;;3.20;;
16854;SDS011;8543;54.522;18.550;2023-09-19T04:55:56;5.20;;;2.90;;
16854;SDS011;8543;54.522;18.550;2023-09-19T04:58:22;5.90;;;3.10;;
16854;SDS011;8543;54.522;18.550;2023-09-19T05:00:47;5.50;;;2.80;;
16854;SDS011;8543;54.522;18.550;2023-09-19T05:03:13;6.50;;;3.40;;
16854;SDS011;8543;54.522;18.550;2023-09-19T05:05:38;6.40;;;3.20;;
16854;SDS011;8543;54.522;18.550;2023-09-19T05:08:06;6.30;;;2.90;;
16854;SDS011;8543;54.522;18.550;2023-09-19T05:10:33;7.30;;;3.10;;
16854;SDS011;8543;54.522;18.550;2023-09-19T05:13:00;6.50;;;3.20;;
16854;SDS011;8543;54.522;18.550;2023-09-19T05:15:26;8.70;;;3.80;;
16854;SDS011;8543;54.522;18.550;2023-09-19T05:17:52;6.30;;;3.60;;
16854;SDS011;8543;54.522;18.550;2023-09-19T05:20:19;6.80;;;3.30;;
16854;SDS011;8543;54.522;18.550;2023-09-19T05:23:12;8.00;;;4.00;;
16854;SDS011;8543;54.522;18.550;2023-09-19T05:25:38;7.30;;;4.60;;
16854;SDS011;8543;54.522;18.550;2023-09-19T05:30:31;7.70;;;3.80;;
16854;SDS011;8543;54.522;18.550;2023-09-19T05:32:57;8.00;;;3.90;;
16854;SDS011;8543;54.522;18.550;2023-09-19T05:35:23;6.50;;;4.00;;
16854;SDS011;8543;54.522;18.550;2023-09-19T05:37:52;7.00;;;3.90;;
16854;SDS011;8543;54.522;18.550;2023-09-19T05:40:18;6.70;;;3.60;;
16854;SDS011;8543;54.522;18.550;2023-09-19T05:42:44;7.30;;;4.00;;
16854;SDS011;8543;54.522;18.550;2023-09-19T05:45:10;6.70;;;3.60;;
16854;SDS011;8543;54.522;18.550;2023-09-19T05:47:39;8.90;;;3.70;;
16854;SDS011;8543;54.522;18.550;2023-09-19T05:50:10;7.40;;;3.80;;
16854;SDS011;8543;54.522;18.550;2023-09-19T05:52:36;7.00;;;4.00;;
16854;SDS011;8543;54.522;18.550;2023-09-19T05:55:06;7.80;;;4.00;;
16854;SDS011;8543;54.522;18.550;2023-09-19T05:57:35;7.50;;;3.80;;
16854;SDS011;8543;54.522;18.550;2023-09-19T06:00:02;8.20;;;4.30;;
16854;SDS011;8543;54.522;18.550;2023-09-19T06:02:33;7.50;;;3.60;;
16854;SDS011;8543;54.522;18.550;2023-09-19T06:05:00;8.10;;;4.20;;
16854;SDS011;8543;54.522;18.550;2023-09-19T06:07:26;8.50;;;3.80;;
16854;SDS011;8543;54.522;18.550;2023-09-19T06:09:53;7.90;;;3.60;;
16854;SDS011;8543;54.522;18.550;2023-09-19T06:12:19;8.80;;;3.80;;
16854;SDS011;8543;54.522;18.550;2023-09-19T06:14:44;6.50;;;3.80;;
16854;SDS011;8543;54.522;18.550;2023-09-19T06:17:10;9.50;;;4.00;;
16854;SDS011;8543;54.522;18.550;2023-09-19T06:19:35;7.20;;;4.10;;
16854;SDS011;8543;54.522;18.550;2023-09-19T06:22:01;7.50;;;4.00;;
16854;SDS011;8543;54.522;18.550;2023-09-19T06:24:26;7.30;;;3.70;;
16854;SDS011;8543;54.522;18.550;2023-09-19T06:26:52;8.80;;;3.60;;
16854;SDS011;8543;54.522;18.550;2023-09-19T06:29:17;5.70;;;3.50;;
16854;SDS011;8543;54.522;18.550;2023-09-19T06:31:43;6.60;;;3.70;;
16854;SDS011;8543;54.522;18.550;2023-09-19T06:34:10;6.10;;;3.60;;
16854;SDS011;8543;54.522;18.550;2023-09-19T06:36:35;8.80;;;4.00;;
16854;SDS011;8543;54.522;18.550;2023-09-19T06:39:01;5.10;;;3.60;;
16854;SDS011;8543;54.522;18.550;2023-09-19T06:41:29;6.90;;;3.90;;
16854;SDS011;8543;54.522;18.550;2023-09-19T06:43:55;5.70;;;3.60;;
16854;SDS011;8543;54.522;18.550;2023-09-19T06:46:20;7.00;;;3.70;;
16854;SDS011;8543;54.522;18.550;2023-09-19T06:48:45;6.00;;;3.90;;
16854;SDS011;8543;54.522;18.550;2023-09-19T06:51:12;6.20;;;3.80;;
16854;SDS011;8543;54.522;18.550;2023-09-19T06:53:40;7.60;;;4.10;;
16854;SDS011;8543;54.522;18.550;2023-09-19T06:56:06;5.70;;;3.70;;
16854;SDS011;8543;54.522;18.550;2023-09-19T06:58:31;6.90;;;4.00;;
16854;SDS011;8543;54.522;18.550;2023-09-19T07:00:57;6.80;;;3.90;;
16854;SDS011;8543;54.522;18.550;2023-09-19T07:03:22;8.10;;;4.10;;
16854;SDS011;8543;54.522;18.550;2023-09-19T07:05:51;8.50;;;4.20;;
16854;SDS011;8543;54.522;18.550;2023-09-19T07:08:17;8.50;;;4.30;;
16854;SDS011;8543;54.522;18.550;2023-09-19T07:10:45;6.70;;;4.50;;
16854;SDS011;8543;54.522;18.550;2023-09-19T07:13:13;8.60;;;4.50;;
16854;SDS011;8543;54.522;18.550;2023-09-19T07:15:42;6.60;;;4.00;;
16854;SDS011;8543;54.522;18.550;2023-09-19T07:18:12;6.40;;;4.30;;
16854;SDS011;8543;54.522;18.550;2023-09-19T07:20:41;9.40;;;4.40;;
16854;SDS011;8543;54.522;18.550;2023-09-19T07:23:14;4.40;;;3.70;;
16854;SDS011;8543;54.522;18.550;2023-09-19T07:25:47;7.80;;;4.10;;
16854;SDS011;8543;54.522;18.550;2023-09-19T07:28:13;5.60;;;3.70;;
16854;SDS011;8543;54.522;18.550;2023-09-19T07:30:39;6.10;;;3.80;;
16854;SDS011;8543;54.522;18.550;2023-09-19T07:33:06;6.00;;;3.80;;
16854;SDS011;8543;54.522;18.550;2023-09-19T07:35:31;5.90;;;4.00;;
16854;SDS011;8543;54.522;18.550;2023-09-19T07:37:57;6.60;;;4.20;;
16854;SDS011;8543;54.522;18.550;2023-09-19T07:40:23;6.30;;;4.10;;
16854;SDS011;8543;54.522;18.550;2023-09-19T07:42:52;6.30;;;4.20;;
16854;SDS011;8543;54.522;18.550;2023-09-19T07:45:18;6.80;;;4.40;;
16854;SDS011;8543;54.522;18.550;2023-09-19T07:47:44;6.10;;;4.00;;
16854;SDS011;8543;54.522;18.550;2023-09-19T07:50:10;5.60;;;4.10;;
16854;SDS011;8543;54.522;18.550;2023-09-19T07:52:36;6.40;;;3.70;;
16854;SDS011;8543;54.522;18.550;2023-09-19T07:55:04;5.90;;;4.10;;
16854;SDS011;8543;54.522;18.550;2023-09-19T07:57:34;6.80;;;4.60;;
16854;SDS011;8543;54.522;18.550;2023-09-19T08:00:00;5.80;;;4.10;;
16854;SDS011;8543;54.522;18.550;2023-09-19T08:02:25;8.70;;;4.40;;
16854;SDS011;8543;54.522;18.550;2023-09-19T08:04:51;6.20;;;4.00;;
16854;SDS011;8543;54.522;18.550;2023-09-19T08:07:17;5.80;;;4.30;;
16854;SDS011;8543;54.522;18.550;2023-09-19T08:09:43;6.50;;;3.60;;
16854;SDS011;8543;54.522;18.550;2023-09-19T08:12:13;6.10;;;4.00;;
16854;SDS011;8543;54.522;18.550;2023-09-19T08:14:39;6.20;;;3.80;;
16854;SDS011;8543;54.522;18.550;2023-09-19T08:17:06;5.70;;;3.80;;
16854;SDS011;8543;54.522;18.550;2023-09-19T08:19:33;7.60;;;3.80;;
16854;SDS011;8543;54.522;18.550;2023-09-19T08:21:59;6.20;;;3.60;;
16854;SDS011;8543;54.522;18.550;2023-09-19T08:24:25;5.10;;;3.50;;
16854;SDS011;8543;54.522;18.550;2023-09-19T08:26:53;4.20;;;2.90;;
16854;SDS011;8543;54.522;18.550;2023-09-19T08:29:22;5.00;;;3.50;;
16854;SDS011;8543;54.522;18.550;2023-09-19T08:31:53;7.50;;;3.60;;
16854;SDS011;8543;54.522;18.550;2023-09-19T08:34:19;7.00;;;3.30;;
16854;SDS011;8543;54.522;18.550;2023-09-19T08:36:46;6.40;;;3.50;;
16854;SDS011;8543;54.522;18.550;2023-09-19T08:39:13;5.30;;;3.30;;
16854;SDS011;8543;54.522;18.550;2023-09-19T08:41:39;5.10;;;3.20;;
16854;SDS011;8543;54.522;18.550;2023-09-19T08:44:05;6.10;;;3.40;;
16854;SDS011;8543;54.522;18.550;2023-09-19T08:46:30;6.00;;;3.00;;
16854;SDS011;8543;54.522;18.550;2023-09-19T08:49:01;5.60;;;3.10;;
16854;SDS011;8543;54.522;18.550;2023-09-19T08:51:42;6.20;;;3.20;;
16854;SDS011;8543;54.522;18.550;2023-09-19T08:54:13;5.60;;;2.90;;
16854;SDS011;8543;54.522;18.550;2023-09-19T08:56:49;6.40;;;3.30;;
16854;SDS011;8543;54.522;18.550;2023-09-19T08:59:15;4.90;;;2.60;;
16854;SDS011;8543;54.522;18.550;2023-09-19T09:01:40;6.30;;;3.60;;
16854;SDS011;8543;54.522;18.550;2023-09-19T09:04:10;6.20;;;3.00;;
16854;SDS011;8543;54.522;18.550;2023-09-19T09:06:38;6.10;;;3.30;;
16854;SDS011;8543;54.522;18.550;2023-09-19T09:09:08;5.90;;;3.20;;
16854;SDS011;8543;54.522;18.550;2023-09-19T09:11:34;5.80;;;3.30;;
16854;SDS011;8543;54.522;18.550;2023-09-19T09:13:59;6.60;;;3.00;;
16854;SDS011;8543;54.522;18.550;2023-09-19T09:16:25;4.40;;;2.90;;
16854;SDS011;8543;54.522;18.550;2023-09-19T09:18:51;6.10;;;2.90;;
16854;SDS011;8543;54.522;18.550;2023-09-19T09:21:17;5.90;;;2.70;;
16854;SDS011;8543;54.522;18.550;2023-09-19T09:23:43;4.50;;;2.50;;
16854;SDS011;8543;54.522;18.550;2023-09-19T09:26:08;5.30;;;2.80;;
16854;SDS011;8543;54.522;18.550;2023-09-19T09:28:34;5.00;;;2.70;;
16854;SDS011;8543;54.522;18.550;2023-09-19T09:31:01;6.30;;;2.60;;
16854;SDS011;8543;54.522;18.550;2023-09-19T09:33:34;4.60;;;2.50;;
16854;SDS011;8543;54.522;18.550;2023-09-19T09:36:00;3.60;;;2.40;;
16854;SDS011;8543;54.522;18.550;2023-09-19T09:38:28;5.00;;;2.70;;
16854;SDS011;8543;54.522;18.550;2023-09-19T09:41:11;6.30;;;2.90;;
16854;SDS011;8543;54.522;18.550;2023-09-19T09:43:41;5.90;;;2.80;;
16854;SDS011;8543;54.522;18.550;2023-09-19T09:51:42;6.40;;;2.60;;
16854;SDS011;8543;54.522;18.550;2023-09-19T09:56:55;5.50;;;2.50;;
16854;SDS011;8543;54.522;18.550;2023-09-19T09:59:43;6.00;;;2.70;;
16854;SDS011;8543;54.522;18.550;2023-09-19T10:02:20;4.50;;;2.50;;
16854;SDS011;8543;54.522;18.550;2023-09-19T10:04:50;6.90;;;2.80;;
16854;SDS011;8543;54.522;18.550;2023-09-19T10:07:26;4.70;;;2.60;;
16854;SDS011;8543;54.522;18.550;2023-09-19T10:10:01;5.80;;;2.70;;
16854;SDS011;8543;54.522;18.550;2023-09-19T10:12:47;4.80;;;2.60;;
16854;SDS011;8543;54.522;18.550;2023-09-19T10:15:14;5.10;;;2.60;;
16854;SDS011;8543;54.522;18.550;2023-09-19T10:17:44;4.50;;;2.30;;
16854;SDS011;8543;54.522;18.550;2023-09-19T10:20:14;6.00;;;2.30;;
16854;SDS011;8543;54.522;18.550;2023-09-19T10:23:04;5.70;;;2.60;;
16854;SDS011;8543;54.522;18.550;2023-09-19T10:25:38;3.90;;;2.10;;
16854;SDS011;8543;54.522;18.550;2023-09-19T10:28:07;6.20;;;2.50;;
16854;SDS011;8543;54.522;18.550;2023-09-19T10:30:46;3.30;;;2.00;;
16854;SDS011;8543;54.522;18.550;2023-09-19T10:33:15;4.90;;;2.30;;
16854;SDS011;8543;54.522;18.550;2023-09-19T10:35:45;5.30;;;2.50;;
16854;SDS011;8543;54.522;18.550;2023-09-19T10:38:12;4.20;;;2.40;;
16854;SDS011;8543;54.522;18.550;2023-09-19T10:40:39;3.80;;;2.10;;
16854;SDS011;8543;54.522;18.550;2023-09-19T10:43:17;3.70;;;2.30;;
16854;SDS011;8543;54.522;18.550;2023-09-19T10:45:46;5.10;;;2.20;;
16854;SDS011;8543;54.522;18.550;2023-09-19T10:48:15;4.60;;;2.20;;
16854;SDS011;8543;54.522;18.550;2023-09-19T10:50:46;6.10;;;2.60;;
16854;SDS011;8543;54.522;18.550;2023-09-19T10:53:16;4.60;;;2.30;;
16854;SDS011;8543;54.522;18.550;2023-09-19T10:55:59;3.90;;;2.30;;
16854;SDS011;8543;54.522;18.550;2023-09-19T10:58:29;4.90;;;2.30;;
16854;SDS011;8543;54.522;18.550;2023-09-19T11:00:59;6.00;;;2.60;;
16854;SDS011;8543;54.522;18.550;2023-09-19T11:03:33;4.90;;;2.60;;
16854;SDS011;8543;54.522;18.550;2023-09-19T11:08:51;5.10;;;2.50;;
16854;SDS011;8543;54.522;18.550;2023-09-19T11:11:50;6.80;;;2.70;;
16854;SDS011;8543;54.522;18.550;2023-09-19T11:30:39;5.90;;;3.10;;
16854;SDS011;8543;54.522;18.550;2023-09-19T11:33:18;4.70;;;2.50;;
16854;SDS011;8543;54.522;18.550;2023-09-19T11:36:05;5.30;;;3.10;;
16854;SDS011;8543;54.522;18.550;2023-09-19T11:43:50;7.30;;;2.80;;
16854;SDS011;8543;54.522;18.550;2023-09-19T11:46:24;5.90;;;2.60;;
16854;SDS011;8543;54.522;18.550;2023-09-19T11:48:52;4.90;;;2.70;;
16854;SDS011;8543;54.522;18.550;2023-09-19T11:51:18;4.60;;;2.40;;
16854;SDS011;8543;54.522;18.550;2023-09-19T11:53:47;8.10;;;2.70;;
16854;SDS011;8543;54.522;18.550;2023-09-19T11:56:16;5.80;;;2.40;;
16854;SDS011;8543;54.522;18.550;2023-09-19T11:58:43;4.50;;;2.70;;
16854;SDS011;8543;54.522;18.550;2023-09-19T12:01:12;5.10;;;2.60;;
16854;SDS011;8543;54.522;18.550;2023-09-19T12:03:46;5.30;;;2.20;;
16854;SDS011;8543;54.522;18.550;2023-09-19T12:06:15;5.60;;;2.50;;
16854;SDS011;8543;54.522;18.550;2023-09-19T12:08:42;3.40;;;2.00;;
16854;SDS011;8543;54.522;18.550;2023-09-19T12:11:15;4.10;;;2.50;;
16854;SDS011;8543;54.522;18.550;2023-09-19T12:13:42;6.30;;;2.70;;
16854;SDS011;8543;54.522;18.550;2023-09-19T12:16:12;5.00;;;2.50;;
16854;SDS011;8543;54.522;18.550;2023-09-19T12:18:40;4.70;;;2.30;;
16854;SDS011;8543;54.522;18.550;2023-09-19T12:21:08;4.40;;;2.30;;
16854;SDS011;8543;54.522;18.550;2023-09-19T12:23:37;3.80;;;2.50;;
16854;SDS011;8543;54.522;18.550;2023-09-19T12:26:06;3.40;;;2.10;;
16854;SDS011;8543;54.522;18.550;2023-09-19T12:28:40;5.00;;;2.20;;
16854;SDS011;8543;54.522;18.550;2023-09-19T12:31:07;4.00;;;2.30;;
16854;SDS011;8543;54.522;18.550;2023-09-19T12:33:34;4.90;;;2.30;;
16854;SDS011;8543;54.522;18.550;2023-09-19T12:36:18;4.20;;;2.20;;
16854;SDS011;8543;54.522;18.550;2023-09-19T12:38:59;3.00;;;2.00;;
16854;SDS011;8543;54.522;18.550;2023-09-19T12:41:28;3.90;;;2.10;;
16854;SDS011;8543;54.522;18.550;2023-09-19T12:43:53;4.20;;;2.20;;
16854;SDS011;8543;54.522;18.550;2023-09-19T12:46:20;6.20;;;2.30;;
16854;SDS011;8543;54.522;18.550;2023-09-19T12:49:14;3.30;;;2.20;;
16854;SDS011;8543;54.522;18.550;2023-09-19T12:51:48;4.30;;;2.50;;
16854;SDS011;8543;54.522;18.550;2023-09-19T12:54:13;5.00;;;2.10;;
16854;SDS011;8543;54.522;18.550;2023-09-19T12:56:42;5.00;;;2.20;;
16854;SDS011;8543;54.522;18.550;2023-09-19T12:59:14;4.60;;;2.00;;
16854;SDS011;8543;54.522;18.550;2023-09-19T13:01:40;5.70;;;2.20;;
16854;SDS011;8543;54.522;18.550;2023-09-19T13:06:47;4.20;;;2.10;;
16854;SDS011;8543;54.522;18.550;2023-09-19T13:09:19;3.50;;;1.90;;
16854;SDS011;8543;54.522;18.550;2023-09-19T13:11:46;4.00;;;2.20;;
16854;SDS011;8543;54.522;18.550;2023-09-19T13:19:38;4.20;;;2.10;;
16854;SDS011;8543;54.522;18.550;2023-09-19T13:22:38;3.90;;;2.30;;
16854;SDS011;8543;54.522;18.550;2023-09-19T13:25:15;3.90;;;2.10;;
16854;SDS011;8543;54.522;18.550;2023-09-19T13:27:45;6.50;;;2.30;;
16854;SDS011;8543;54.522;18.550;2023-09-19T13:30:13;4.40;;;2.30;;
16854;SDS011;8543;54.522;18.550;2023-09-19T13:32:39;4.10;;;2.10;;
16854;SDS011;8543;54.522;18.550;2023-09-19T13:35:06;4.90;;;2.10;;
16854;SDS011;8543;54.522;18.550;2023-09-19T13:37:34;4.30;;;2.30;;
16854;SDS011;8543;54.522;18.550;2023-09-19T13:40:06;4.70;;;2.40;;
16854;SDS011;8543;54.522;18.550;2023-09-19T13:42:35;3.80;;;2.00;;
16854;SDS011;8543;54.522;18.550;2023-09-19T13:45:02;6.30;;;2.30;;
16854;SDS011;8543;54.522;18.550;2023-09-19T13:47:28;5.00;;;2.10;;
16854;SDS011;8543;54.522;18.550;2023-09-19T13:49:54;3.60;;;2.00;;
16854;SDS011;8543;54.522;18.550;2023-09-19T13:52:20;6.90;;;2.40;;
16854;SDS011;8543;54.522;18.550;2023-09-19T13:54:46;4.80;;;2.40;;
16854;SDS011;8543;54.522;18.550;2023-09-19T13:57:12;4.20;;;2.10;;
16854;SDS011;8543;54.522;18.550;2023-09-19T13:59:38;3.70;;;2.20;;
16854;SDS011;8543;54.522;18.550;2023-09-19T14:02:04;4.00;;;2.30;;
16854;SDS011;8543;54.522;18.550;2023-09-19T14:04:30;4.30;;;2.30;;
16854;SDS011;8543;54.522;18.550;2023-09-19T14:06:56;5.10;;;2.20;;
16854;SDS011;8543;54.522;18.550;2023-09-19T14:09:23;8.20;;;2.60;;
16854;SDS011;8543;54.522;18.550;2023-09-19T14:11:50;4.20;;;2.50;;
16854;SDS011;8543;54.522;18.550;2023-09-19T14:14:17;5.10;;;2.50;;
16854;SDS011;8543;54.522;18.550;2023-09-19T14:16:43;5.00;;;2.50;;
16854;SDS011;8543;54.522;18.550;2023-09-19T14:19:09;7.20;;;2.40;;
16854;SDS011;8543;54.522;18.550;2023-09-19T14:21:35;5.20;;;2.50;;
16854;SDS011;8543;54.522;18.550;2023-09-19T14:24:01;5.00;;;2.40;;
16854;SDS011;8543;54.522;18.550;2023-09-19T14:26:27;5.00;;;2.40;;
16854;SDS011;8543;54.522;18.550;2023-09-19T14:28:54;5.90;;;2.90;;
16854;SDS011;8543;54.522;18.550;2023-09-19T14:31:19;6.00;;;2.60;;
16854;SDS011;8543;54.522;18.550;2023-09-19T14:33:45;5.30;;;2.60;;
16854;SDS011;8543;54.522;18.550;2023-09-19T14:36:10;6.00;;;2.60;;
16854;SDS011;8543;54.522;18.550;2023-09-19T14:38:37;5.00;;;2.60;;
16854;SDS011;8543;54.522;18.550;2023-09-19T14:41:03;5.40;;;2.70;;
16854;SDS011;8543;54.522;18.550;2023-09-19T14:43:31;6.00;;;2.60;;
16854;SDS011;8543;54.522;18.550;2023-09-19T14:46:06;4.60;;;2.40;;
16854;SDS011;8543;54.522;18.550;2023-09-19T14:48:36;4.70;;;2.50;;
16854;SDS011;8543;54.522;18.550;2023-09-19T14:51:02;4.20;;;2.70;;
16854;SDS011;8543;54.522;18.550;2023-09-19T14:53:28;7.80;;;3.10;;
16854;SDS011;8543;54.522;18.550;2023-09-19T14:55:54;6.40;;;2.70;;
16854;SDS011;8543;54.522;18.550;2023-09-19T14:58:20;4.60;;;2.50;;
16854;SDS011;8543;54.522;18.550;2023-09-19T15:00:46;5.70;;;2.90;;
16854;SDS011;8543;54.522;18.550;2023-09-19T15:03:11;6.30;;;2.60;;
16854;SDS011;8543;54.522;18.550;2023-09-19T15:05:38;6.70;;;2.50;;
16854;SDS011;8543;54.522;18.550;2023-09-19T15:08:04;4.70;;;2.60;;
16854;SDS011;8543;54.522;18.550;2023-09-19T15:10:30;7.00;;;2.70;;
16854;SDS011;8543;54.522;18.550;2023-09-19T15:12:56;6.40;;;2.70;;
16854;SDS011;8543;54.522;18.550;2023-09-19T15:15:21;7.00;;;2.70;;
16854;SDS011;8543;54.522;18.550;2023-09-19T15:17:47;7.30;;;2.90;;
16854;SDS011;8543;54.522;18.550;2023-09-19T15:20:12;7.90;;;2.50;;
16854;SDS011;8543;54.522;18.550;2023-09-19T15:22:40;5.60;;;2.70;;
16854;SDS011;8543;54.522;18.550;2023-09-19T15:25:05;6.20;;;2.60;;
16854;SDS011;8543;54.522;18.550;2023-09-19T15:27:31;6.10;;;2.50;;
16854;SDS011;8543;54.522;18.550;2023-09-19T15:29:59;6.30;;;2.40;;
16854;SDS011;8543;54.522;18.550;2023-09-19T15:32:25;5.70;;;2.50;;
16854;SDS011;8543;54.522;18.550;2023-09-19T15:34:51;4.90;;;2.40;;
16854;SDS011;8543;54.522;18.550;2023-09-19T15:37:16;8.40;;;2.80;;
16854;SDS011;8543;54.522;18.550;2023-09-19T15:39:42;4.80;;;2.60;;
16854;SDS011;8543;54.522;18.550;2023-09-19T15:42:10;7.30;;;2.50;;
16854;SDS011;8543;54.522;18.550;2023-09-19T15:44:35;4.70;;;2.60;;
16854;SDS011;8543;54.522;18.550;2023-09-19T15:47:02;4.40;;;2.30;;
16854;SDS011;8543;54.522;18.550;2023-09-19T15:49:28;4.00;;;2.30;;
16854;SDS011;8543;54.522;18.550;2023-09-19T15:51:53;5.80;;;2.60;;